Time;durP1;ratioP1;P1;durP2;ratioP2;P2;SDS_P1;SDS_P2;PMS_P1;PMS_P2;Temp;Humidity;BMP_temperature;BMP_pressure;BME280_temperature;BME280_humidity;BME280_pressure;Samples;Min_cycle;Max_cycle;Signal;HPM_P1;HPM_P2
2022/12/20 00:03:30;;;;;;;;;7.00;5.75;;;;;13.92;61.80;100760.22;6146596;23;46078;-72
2022/12/20 00:05:56;;;;;;;;;9.25;7.25;;;;;13.90;61.70;100751.59;6146528;23;47009;-72
2022/12/20 00:08:21;;;;;;;;;9.25;6.00;;;;;13.90;61.98;100757.72;6147450;23;45651;-73
2022/12/20 00:10:46;;;;;;;;;8.50;7.25;;;;;13.90;62.17;100756.88;6147420;23;45723;-75
2022/12/20 00:13:13;;;;;;;;;10.00;7.75;;;;;13.90;62.10;100744.53;6146426;23;46172;-77
2022/12/20 00:19:02;;;;;;;;;9.00;7.50;;;;;13.88;62.29;100736.75;6147039;23;45456;-75
2022/12/20 00:21:29;;;;;;;;;7.50;7.25;;;;;13.84;62.06;100731.88;6146230;23;45562;-75
2022/12/20 00:23:55;;;;;;;;;7.00;7.00;;;;;13.88;62.21;100731.50;6147090;23;45614;-75
2022/12/20 00:26:24;;;;;;;;;9.75;8.75;;;;;13.85;61.80;100720.38;6146954;23;46244;-75
2022/12/20 00:28:49;;;;;;;;;8.00;8.00;;;;;13.83;62.33;100725.78;6147775;23;45731;-75
2022/12/20 00:34:37;;;;;;;;;9.00;6.00;;;;;13.78;62.08;100735.00;6147343;23;45666;-76
2022/12/20 00:37:02;;;;;;;;;9.00;6.00;;;;;13.77;62.32;100728.91;6147314;23;46357;-75
2022/12/20 00:39:27;;;;;;;;;9.00;6.00;;;;;13.76;62.48;100722.00;6146992;23;45890;-75
2022/12/20 00:41:53;;;;;;;;;9.50;5.75;;;;;13.74;62.56;100723.06;6120026;23;45848;-78
2022/12/20 00:44:18;;;;;;;;;8.75;7.25;;;;;13.73;62.57;100716.97;6119864;23;47613;-75
2022/12/20 00:50:33;;;;;;;;;8.50;7.00;;;;;13.72;62.67;100715.28;6142469;23;45877;-74
2022/12/20 00:52:58;;;;;;;;;5.50;5.50;;;;;13.72;62.14;100711.81;6146117;23;45674;-78
2022/12/20 00:55:24;;;;;;;;;10.50;8.75;;;;;13.70;62.46;100708.50;6146722;23;45533;-76
2022/12/20 00:57:49;;;;;;;;;10.00;9.00;;;;;13.71;62.25;100704.91;6146012;23;46897;-75
2022/12/20 01:00:15;;;;;;;;;9.00;7.50;;;;;13.71;62.65;100715.44;6146756;23;45575;-72
2022/12/20 01:02:40;;;;;;;;;8.75;6.50;;;;;13.71;62.43;100702.28;6147081;23;45726;-75
2022/12/20 01:05:06;;;;;;;;;7.00;7.00;;;;;13.67;62.44;100709.56;6146283;23;47049;-77
2022/12/20 01:07:32;;;;;;;;;5.25;5.00;;;;;13.70;62.68;100697.97;6146414;23;46201;-75
2022/12/20 01:09:57;;;;;;;;;9.75;8.75;;;;;13.68;62.34;100702.50;6147940;23;45737;-76
2022/12/20 01:12:22;;;;;;;;;7.25;5.50;;;;;13.65;62.34;100693.06;6147707;23;45719;-73
2022/12/20 01:14:48;;;;;;;;;5.00;5.00;;;;;13.69;62.36;100715.56;6147717;23;46287;-76
2022/12/20 01:20:35;;;;;;;;;6.00;5.00;;;;;13.69;62.20;100712.06;6148059;23;45742;-76
2022/12/20 01:23:00;;;;;;;;;4.50;4.00;;;;;13.68;62.20;100697.25;6147068;23;45957;-74
2022/12/20 01:25:26;;;;;;;;;6.00;6.00;;;;;13.66;62.39;100696.50;6148131;23;46352;-74
2022/12/20 01:27:51;;;;;;;;;4.00;4.00;;;;;13.69;62.14;100697.13;6147540;23;47335;-74
2022/12/20 01:30:16;;;;;;;;;5.25;5.25;;;;;13.67;62.31;100688.50;6147483;23;45801;-77
2022/12/20 01:32:42;;;;;;;;;5.75;5.75;;;;;13.69;62.54;100694.47;6147612;23;45687;-76
2022/12/20 01:35:08;;;;;;;;;4.00;4.00;;;;;13.64;62.73;100682.66;6148000;23;46590;-73
2022/12/20 01:37:34;;;;;;;;;4.00;4.00;;;;;13.68;62.28;100682.28;6148163;23;45830;-75
2022/12/20 01:39:59;;;;;;;;;5.00;4.00;;;;;13.69;62.50;100688.38;6147520;23;45447;-75
2022/12/20 01:42:25;;;;;;;;;4.00;4.00;;;;;13.68;62.44;100691.97;6147955;23;45606;-76
2022/12/20 01:44:54;;;;;;;;;4.00;4.00;;;;;13.67;62.58;100685.88;6148262;23;46441;-77
2022/12/20 01:50:42;;;;;;;;;5.00;4.00;;;;;13.67;62.53;100680.59;6144004;23;45712;-77
2022/12/20 01:53:09;;;;;;;;;4.50;4.25;;;;;13.70;62.75;100688.25;6147660;23;46105;-77
2022/12/20 01:55:34;;;;;;;;;5.00;4.75;;;;;13.70;62.66;100685.63;6148076;23;45926;-77
2022/12/20 01:58:07;;;;;;;;;5.00;4.25;;;;;13.70;62.82;100690.91;6146837;23;45985;-74
2022/12/20 02:00:32;;;;;;;;;5.00;4.00;;;;;13.70;62.72;100675.09;6147208;23;45912;-74
2022/12/20 02:06:23;;;;;;;;;4.00;4.00;;;;;13.73;62.91;100681.88;6148153;23;45685;-75
2022/12/20 02:08:51;;;;;;;;;4.75;4.75;;;;;13.72;62.37;100691.59;6148357;23;46323;-75
2022/12/20 02:11:37;;;;;;;;;5.00;4.00;;;;;13.70;62.52;100685.63;6147032;23;45641;-77
2022/12/20 02:14:22;;;;;;;;;4.25;4.00;;;;;13.68;62.58;100690.19;6148068;23;45772;-75
2022/12/20 02:17:11;;;;;;;;;4.50;4.00;;;;;13.70;62.71;100704.06;6147248;23;46591;-75
2022/12/20 02:19:55;;;;;;;;;6.50;4.00;;;;;13.70;62.42;100695.31;6145438;23;48425;-77
2022/12/20 02:22:49;;;;;;;;;9.00;5.75;;;;;13.69;62.55;100689.22;6147805;23;45588;-73
2022/12/20 02:25:31;;;;;;;;;6.50;6.00;;;;;13.70;62.55;100692.69;6121760;23;46036;-74
2022/12/20 02:28:15;;;;;;;;;5.75;5.50;;;;;13.70;62.55;100693.53;6147363;23;47186;-76
2022/12/20 02:30:46;;;;;;;;;5.00;4.00;;;;;13.66;62.41;100681.56;6147271;23;45978;-77
2022/12/20 02:33:13;;;;;;;;;6.00;5.00;;;;;13.69;62.24;100685.75;6148510;23;45957;-77
2022/12/20 02:35:40;;;;;;;;;5.75;5.25;;;;;13.68;62.10;100684.91;6121662;23;45510;-75
2022/12/20 02:38:24;;;;;;;;;7.25;5.00;;;;;13.68;62.17;100684.91;6147653;23;45690;-77
2022/12/20 02:40:53;;;;;;;;;6.00;5.00;;;;;13.67;62.17;100677.97;6146966;23;46117;-77
2022/12/20 02:46:08;;;;;;;;;6.00;5.50;;;;;13.62;62.78;100674.88;6148084;23;45834;-76
2022/12/20 02:48:36;;;;;;;;;5.00;5.00;;;;;13.65;62.09;100674.66;6146990;23;45764;-75
2022/12/20 02:51:05;;;;;;;;;5.00;5.00;;;;;13.66;62.28;100680.72;6146811;23;45633;-74
2022/12/20 02:53:31;;;;;;;;;4.25;4.25;;;;;13.65;62.07;100666.75;6120351;23;45663;-73
2022/12/20 02:56:22;;;;;;;;;3.25;3.00;;;;;13.66;62.44;100652.59;6147041;23;45479;-72
2022/12/20 02:59:12;;;;;;;;;5.25;5.00;;;;;13.64;62.36;100645.81;6147870;23;46671;-72
2022/12/20 03:05:00;;;;;;;;;5.00;5.00;;;;;13.60;61.86;100644.41;6147178;23;45444;-72
2022/12/20 03:07:27;;;;;;;;;7.00;7.00;;;;;13.54;62.17;100637.84;6147753;23;45464;-73
2022/12/20 03:09:52;;;;;;;;;10.25;7.50;;;;;13.59;62.07;100634.81;6120463;23;46724;-75
2022/12/20 03:12:17;;;;;;;;;4.00;4.00;;;;;13.59;62.60;100634.81;6146842;23;47440;-73
2022/12/20 03:14:43;;;;;;;;;5.50;5.50;;;;;13.58;61.99;100635.78;6148024;23;45787;-70
2022/12/20 03:20:30;;;;;;;;;8.00;5.00;;;;;13.51;62.07;100632.81;6146798;23;45604;-74
2022/12/20 03:22:55;;;;;;;;;6.50;5.50;;;;;13.54;62.07;100647.53;6147125;23;46210;-74
2022/12/20 03:25:21;;;;;;;;;6.00;5.00;;;;;13.53;62.30;100641.44;6147058;23;45475;-75
2022/12/20 03:27:47;;;;;;;;;8.00;6.50;;;;;13.52;61.70;100644.19;6147365;23;45459;-75
2022/12/20 03:30:13;;;;;;;;;6.50;5.00;;;;;13.50;62.17;100632.94;6120532;23;46444;-75
2022/12/20 03:35:59;;;;;;;;;5.50;3.50;;;;;13.48;62.10;100621.72;6148126;23;45577;-76
2022/12/20 03:38:25;;;;;;;;;6.50;6.50;;;;;13.42;61.72;100623.91;6148429;23;45541;-74
2022/12/20 03:40:50;;;;;;;;;6.00;5.00;;;;;13.44;61.97;100632.47;6146595;23;46162;-76
2022/12/20 03:43:15;;;;;;;;;6.75;5.75;;;;;13.43;62.23;100628.22;6146723;23;46137;-76
2022/12/20 03:45:41;;;;;;;;;8.00;7.50;;;;;13.46;61.86;100637.63;6147193;23;45724;-74
2022/12/20 03:51:28;;;;;;;;;9.00;8.00;;;;;13.45;61.75;100628.06;6142975;23;45981;-76
2022/12/20 03:53:53;;;;;;;;;10.00;7.75;;;;;13.44;62.28;100627.22;6147317;23;45898;-72
2022/12/20 03:56:19;;;;;;;;;10.50;9.25;;;;;13.44;61.63;100627.22;6146636;23;45759;-77
2022/12/20 03:58:44;;;;;;;;;11.00;10.00;;;;;13.42;62.07;100613.38;6147928;23;45624;-73
2022/12/20 04:01:21;;;;;;;;;10.00;9.75;;;;;13.44;61.65;100621.94;6146450;23;46785;-74
2022/12/20 04:07:08;;;;;;;;;8.00;8.00;;;;;13.42;61.67;100620.44;6147251;23;45526;-75
2022/12/20 04:09:33;;;;;;;;;7.75;7.75;;;;;13.39;61.83;100616.25;6147198;23;45654;-73
2022/12/20 04:11:59;;;;;;;;;11.25;10.50;;;;;13.40;61.63;100601.28;6145536;23;46494;-75
2022/12/20 04:14:25;;;;;;;;;9.75;8.00;;;;;13.38;61.91;100604.06;6146628;23;46373;-74
2022/12/20 04:16:50;;;;;;;;;6.00;6.00;;;;;13.40;61.50;100606.56;6147312;23;45483;-73
2022/12/20 04:22:36;;;;;;;;;6.50;5.75;;;;;13.37;61.93;100586.59;6146236;23;45633;-73
2022/12/20 04:25:02;;;;;;;;;8.75;7.75;;;;;13.37;61.75;100588.41;6147125;23;45797;-72
2022/12/20 04:27:27;;;;;;;;;5.00;5.00;;;;;13.36;61.76;100592.81;6146295;23;45617;-74
2022/12/20 04:29:53;;;;;;;;;2.00;2.00;;;;;13.37;61.64;100585.75;6147108;23;45537;-70
2022/12/20 04:32:18;;;;;;;;;8.00;6.25;;;;;13.35;61.56;100569.25;6145933;23;46331;-73
2022/12/20 04:38:05;;;;;;;;;5.00;4.50;;;;;13.35;61.56;100574.53;6146948;23;45821;-73
2022/12/20 04:40:30;;;;;;;;;5.25;4.00;;;;;13.33;61.33;100579.91;6145899;23;45931;-72
2022/12/20 04:42:56;;;;;;;;;5.50;4.75;;;;;13.32;61.41;100577.41;6146494;23;47253;-71
2022/12/20 04:45:21;;;;;;;;;5.00;4.00;;;;;13.33;61.35;100577.28;6148426;23;46304;-75
2022/12/20 04:47:47;;;;;;;;;5.25;4.25;;;;;13.34;61.39;100581.56;6148374;23;45670;-71
2022/12/20 04:50:13;;;;;;;;;5.75;4.25;;;;;13.32;61.35;100577.41;6148114;23;45550;-75
2022/12/20 04:55:22;;;;;;;;;4.00;3.75;;;;;13.32;61.66;100573.00;6147702;23;45952;-73
2022/12/20 04:57:47;;;;;;;;;5.00;5.00;;;;;13.32;61.52;100585.31;6148400;23;45740;-73
2022/12/20 05:00:14;;;;;;;;;3.75;3.75;;;;;13.31;61.53;100573.13;6148359;23;45642;-73
2022/12/20 05:02:39;;;;;;;;;2.50;2.50;;;;;13.31;61.47;100581.00;6120739;23;46509;-71
2022/12/20 05:08:26;;;;;;;;;3.00;3.00;;;;;13.29;61.59;100575.03;6147789;23;45667;-74
2022/12/20 05:10:52;;;;;;;;;4.00;3.50;;;;;13.27;61.61;100563.81;6147261;23;45853;-73
2022/12/20 05:13:17;;;;;;;;;3.00;2.25;;;;;13.23;61.37;100554.47;6147443;23;46336;-72
2022/12/20 05:15:43;;;;;;;;;4.00;2.75;;;;;13.29;61.59;100556.59;6147782;23;46092;-72
2022/12/20 05:18:09;;;;;;;;;3.00;3.00;;;;;13.25;61.62;100544.69;6148291;23;45503;-73
2022/12/20 05:20:34;;;;;;;;;3.00;2.50;;;;;13.28;61.45;100555.78;6147137;23;46028;-74
2022/12/20 05:28:33;;;;;;;;;3.00;2.00;;;;;13.30;61.34;100535.44;6147947;23;45606;-73
2022/12/20 05:30:58;;;;;;;;;2.00;2.00;;;;;13.17;61.56;100533.97;6147879;23;46173;-73
2022/12/20 05:33:24;;;;;;;;;3.00;2.00;;;;;13.31;61.21;100539.75;6147441;23;47589;-72
2022/12/20 05:35:49;;;;;;;;;2.75;2.25;;;;;13.24;61.53;100535.09;6148801;23;46274;-74
2022/12/20 05:38:15;;;;;;;;;1.50;1.00;;;;;13.33;61.03;100553.59;6147986;23;45783;-72
2022/12/20 05:40:40;;;;;;;;;1.00;1.00;;;;;13.34;61.52;100557.06;6147318;23;45617;-74
2022/12/20 05:43:06;;;;;;;;;2.00;1.75;;;;;13.31;61.45;100550.28;6147362;23;47075;-72
2022/12/20 05:45:32;;;;;;;;;2.00;2.00;;;;;13.35;61.29;100556.09;6147296;23;46116;-73
2022/12/20 05:47:58;;;;;;;;;1.75;1.75;;;;;13.34;61.68;100547.38;6147502;23;45669;-73
2022/12/20 05:54:13;;;;;;;;;2.50;2.00;;;;;13.41;61.65;100542.44;6142688;23;45755;-72
2022/12/20 05:56:39;;;;;;;;;1.00;1.00;;;;;13.39;61.15;100544.34;6147900;23;45949;-74
2022/12/20 05:59:04;;;;;;;;;3.00;3.00;;;;;13.41;61.44;100556.44;6147729;23;45573;-74
2022/12/20 06:01:29;;;;;;;;;2.50;2.50;;;;;13.42;61.00;100544.94;6147176;23;45683;-74
2022/12/20 06:03:55;;;;;;;;;2.00;2.00;;;;;13.42;61.27;100541.47;6147784;23;46145;-73
2022/12/20 06:06:20;;;;;;;;;1.00;1.00;;;;;13.43;61.50;100540.53;6147262;23;46228;-73
2022/12/20 06:08:46;;;;;;;;;2.00;2.00;;;;;13.47;61.12;100546.34;6148103;23;45458;-72
2022/12/20 06:11:12;;;;;;;;;2.00;2.00;;;;;13.49;61.15;100561.06;6147292;23;46075;-73
2022/12/20 06:13:37;;;;;;;;;2.50;2.00;;;;;13.43;61.40;100536.09;6147062;23;45864;-72
2022/12/20 06:16:03;;;;;;;;;2.00;1.00;;;;;13.52;61.06;100554.69;6146639;23;45931;-72
2022/12/20 06:18:28;;;;;;;;;1.75;1.75;;;;;13.52;61.34;100552.91;6147379;23;45661;-73
2022/12/20 06:24:15;;;;;;;;;2.75;2.00;;;;;13.51;61.30;100547.75;6147311;23;45663;-74
2022/12/20 06:26:40;;;;;;;;;1.25;1.25;;;;;13.56;61.26;100558.72;6148217;23;45624;-74
2022/12/20 06:29:08;;;;;;;;;1.00;1.00;;;;;13.55;60.88;100541.28;6146922;23;45674;-75
2022/12/20 06:31:33;;;;;;;;;3.00;2.00;;;;;13.59;61.05;100553.22;6146885;23;45656;-73
2022/12/20 06:33:59;;;;;;;;;1.75;1.75;;;;;13.59;60.93;100559.31;6148099;23;46322;-75
2022/12/20 06:36:24;;;;;;;;;4.00;2.00;;;;;13.53;60.76;100545.84;6147430;23;46033;-71
2022/12/20 06:38:50;;;;;;;;;2.50;2.00;;;;;13.63;60.86;100554.63;6148261;23;45635;-72
2022/12/20 06:41:16;;;;;;;;;1.00;1.00;;;;;13.62;60.87;100545.03;6147035;23;45789;-75
2022/12/20 06:43:41;;;;;;;;;1.50;1.00;;;;;13.66;61.20;100541.19;6146971;23;46456;-72
2022/12/20 06:46:06;;;;;;;;;2.25;2.00;;;;;13.67;61.19;100554.22;6147709;23;45528;-73
2022/12/20 06:48:32;;;;;;;;;2.00;1.75;;;;;13.68;60.93;100562.97;6147756;23;45522;-72
2022/12/20 06:54:19;;;;;;;;;2.00;1.00;;;;;13.67;61.02;100546.31;6143762;23;45920;-71
2022/12/20 06:56:45;;;;;;;;;2.25;2.00;;;;;13.71;60.69;100545.09;6119735;23;47187;-70
2022/12/20 06:59:14;;;;;;;;;2.50;2.50;;;;;13.73;60.93;100543.19;6147681;23;45682;-70
2022/12/20 07:01:43;;;;;;;;;2.00;1.00;;;;;13.75;60.89;100549.16;6147482;23;46113;-73
2022/12/20 07:04:09;;;;;;;;;1.00;1.00;;;;;13.77;60.82;100549.00;6120319;23;47345;-70
2022/12/20 07:09:56;;;;;;;;;3.00;2.00;;;;;13.79;61.16;100562.88;6147017;23;45639;-70
2022/12/20 07:12:21;;;;;;;;;1.25;1.25;;;;;13.78;60.54;100554.16;6146877;23;45766;-70
2022/12/20 07:14:48;;;;;;;;;2.00;2.00;;;;;13.81;60.51;100553.91;6147932;23;45713;-71
2022/12/20 07:17:14;;;;;;;;;4.00;2.75;;;;;13.84;60.74;100558.91;6147555;23;46102;-71
2022/12/20 07:19:39;;;;;;;;;1.00;1.00;;;;;13.86;60.93;100550.88;6146683;23;45589;-71
2022/12/20 07:22:05;;;;;;;;;2.00;2.00;;;;;13.87;60.59;100549.91;6145987;23;45443;-70
2022/12/20 07:24:31;;;;;;;;;1.75;1.50;;;;;13.90;60.60;100546.16;6146507;23;46369;-71
2022/12/20 07:26:57;;;;;;;;;1.50;1.50;;;;;13.88;60.34;100539.22;6146856;23;46100;-75
2022/12/20 07:29:23;;;;;;;;;4.00;3.00;;;;;13.92;60.44;100550.34;6146619;23;45609;-73
2022/12/20 07:31:48;;;;;;;;;2.75;2.50;;;;;13.92;60.42;100545.09;6147544;23;45691;-72
2022/12/20 07:34:13;;;;;;;;;2.00;2.00;;;;;13.91;60.48;100532.03;6149438;23;45537;-71
2022/12/20 07:40:02;;;;;;;;;1.75;1.75;;;;;13.93;60.16;100538.81;6147224;23;45686;-71
2022/12/20 07:42:27;;;;;;;;;1.50;1.00;;;;;13.97;60.25;100549.94;6146644;23;45614;-71
2022/12/20 07:44:52;;;;;;;;;3.00;2.00;;;;;14.00;60.44;100550.50;6146860;23;46467;-72
2022/12/20 07:47:18;;;;;;;;;1.00;1.00;;;;;14.00;60.35;100550.50;6119319;23;47142;-71
2022/12/20 07:49:43;;;;;;;;;2.00;2.00;;;;;14.02;59.98;100555.66;6146589;23;45471;-70
2022/12/20 07:55:30;;;;;;;;;2.00;1.50;;;;;14.04;60.33;100545.81;6142186;23;45581;-71
2022/12/20 07:58:01;;;;;;;;;1.00;1.00;;;;;14.05;60.30;100558.84;6143333;23;47192;-73
2022/12/20 08:00:26;;;;;;;;;2.75;2.75;;;;;14.04;59.96;100545.81;6147326;23;45747;-70
2022/12/20 08:03:07;;;;;;;;;2.00;2.00;;;;;14.07;60.03;100553.47;6146887;23;45881;-71
2022/12/20 08:05:35;;;;;;;;;3.75;2.50;;;;;14.07;59.84;100548.19;6146130;23;46938;-71
2022/12/20 08:08:01;;;;;;;;;2.00;2.00;;;;;14.09;59.96;100557.59;6147809;23;46353;-70
2022/12/20 08:10:27;;;;;;;;;3.00;2.00;;;;;14.09;60.13;100560.25;6147379;23;45619;-73
2022/12/20 08:12:53;;;;;;;;;3.00;2.00;;;;;14.10;59.86;100554.00;6148013;23;45748;-72
2022/12/20 08:15:21;;;;;;;;;1.00;1.00;;;;;14.11;59.87;100555.69;6147521;23;47370;-70
2022/12/20 08:17:47;;;;;;;;;2.50;2.00;;;;;14.11;60.11;100555.69;6148143;23;45852;-72
2022/12/20 08:20:13;;;;;;;;;11.25;6.25;;;;;14.10;59.95;100554.00;6148852;23;45384;-72
2022/12/20 08:26:01;;;;;;;;;4.75;3.25;;;;;14.13;59.61;100559.03;6149483;23;46014;-72
2022/12/20 08:28:26;;;;;;;;;4.00;3.00;;;;;14.10;59.66;100554.00;6148813;23;46794;-72
2022/12/20 08:30:52;;;;;;;;;6.00;4.00;;;;;14.15;59.88;100556.25;6122865;23;45532;-70
2022/12/20 08:33:18;;;;;;;;;4.00;3.00;;;;;14.16;59.49;100552.66;6149364;23;45717;-71
2022/12/20 08:35:43;;;;;;;;;1.00;1.00;;;;;14.14;59.65;100552.78;6149036;23;45618;-72
2022/12/20 08:38:09;;;;;;;;;4.00;1.75;;;;;14.15;59.46;100551.81;6150371;23;45574;-72
2022/12/20 08:40:34;;;;;;;;;9.25;7.50;;;;;14.14;59.78;100541.44;6149902;23;45484;-73
2022/12/20 08:42:59;;;;;;;;;4.00;4.00;;;;;14.19;59.68;100555.03;6150501;23;45596;-72
2022/12/20 08:45:25;;;;;;;;;3.75;3.25;;;;;14.19;59.21;100557.66;6149112;23;46135;-72
2022/12/20 08:47:50;;;;;;;;;4.75;3.50;;;;;14.15;59.46;100543.06;6149867;23;46073;-72
2022/12/20 08:50:16;;;;;;;;;2.25;2.00;;;;;14.20;59.19;100554.03;6149652;23;45655;-71
2022/12/20 08:56:13;;;;;;;;;2.25;2.00;;;;;14.19;59.12;100550.59;6146572;23;45888;-71
2022/12/20 08:58:40;;;;;;;;;1.75;1.75;;;;;14.10;58.85;100532.94;6149055;23;46027;-73
2022/12/20 09:01:08;;;;;;;;;1.25;1.25;;;;;14.22;58.86;100555.59;6149656;23;45569;-71
2022/12/20 09:03:35;;;;;;;;;3.50;2.25;;;;;14.21;58.78;100555.72;6149237;23;45605;-72
2022/12/20 09:06:05;;;;;;;;;3.00;2.00;;;;;14.22;59.05;100554.75;6148822;23;46757;-71
2022/12/20 09:08:31;;;;;;;;;2.00;2.00;;;;;14.17;59.01;100541.16;6149593;23;45846;-70
2022/12/20 09:11:04;;;;;;;;;1.00;1.00;;;;;14.22;59.08;100560.88;6122402;23;45695;-71
2022/12/20 09:13:29;;;;;;;;;5.75;4.25;;;;;14.24;59.42;100571.28;6149804;23;45539;-72
2022/12/20 09:15:55;;;;;;;;;10.50;9.50;;;;;14.24;59.44;100568.66;6149358;23;45534;-72
2022/12/20 09:18:20;;;;;;;;;2.00;2.00;;;;;14.22;59.59;100566.13;6148729;23;45763;-71
2022/12/20 09:20:45;;;;;;;;;1.25;1.00;;;;;14.23;59.99;100562.53;6149650;23;45656;-71
2022/12/20 09:26:34;;;;;;;;;4.75;2.00;;;;;14.23;60.42;100574.88;6148928;23;45521;-70
2022/12/20 09:29:00;;;;;;;;;2.75;2.25;;;;;14.23;60.44;100573.06;6148319;23;46170;-70
2022/12/20 09:31:26;;;;;;;;;3.00;2.00;;;;;14.24;60.55;100571.28;6148655;23;45472;-71
2022/12/20 09:33:55;;;;;;;;;6.75;4.25;;;;;14.24;60.63;100563.38;6150018;23;45565;-71
2022/12/20 09:36:21;;;;;;;;;4.75;3.25;;;;;14.22;61.31;100568.75;6148496;23;47448;-70
2022/12/20 09:38:47;;;;;;;;;9.00;7.25;;;;;14.20;61.30;100565.41;6148488;23;47179;-71
2022/12/20 09:41:31;;;;;;;;;4.00;4.00;;;;;14.19;61.63;100568.22;6149543;23;45750;-72
2022/12/20 09:43:59;;;;;;;;;3.00;2.75;;;;;14.18;61.98;100569.16;6150410;23;45559;-71
2022/12/20 09:46:26;;;;;;;;;2.25;1.50;;;;;14.17;62.19;100564.88;6150823;23;46425;-72
2022/12/20 09:48:52;;;;;;;;;3.50;2.00;;;;;14.15;62.64;100570.25;6150721;23;46131;-71
2022/12/20 09:58:07;;;;;;;;;3.00;2.50;;;;;14.07;63.41;100556.94;6147750;23;45725;-72
2022/12/20 10:00:44;;;;;;;;;3.50;2.50;;;;;14.01;63.37;100556.63;6148345;23;45481;-69
2022/12/20 10:03:35;;;;;;;;;2.25;2.25;;;;;14.00;64.11;100557.56;6148524;23;45643;-70
2022/12/20 10:06:12;;;;;;;;;1.25;1.25;;;;;13.95;64.27;100552.72;6149074;23;45537;-71
2022/12/20 10:12:28;;;;;;;;;2.00;2.00;;;;;13.92;64.83;100546.88;6148659;23;46014;-70
2022/12/20 10:15:12;;;;;;;;;2.00;1.25;;;;;13.89;64.85;100558.50;6148627;23;45704;-71
2022/12/20 10:18:11;;;;;;;;;4.00;2.75;;;;;13.88;64.57;100560.28;6148731;23;45756;-69
2022/12/20 10:20:51;;;;;;;;;3.00;2.00;;;;;13.89;64.96;100550.59;6148406;23;46686;-71
2022/12/20 10:23:26;;;;;;;;;3.00;2.50;;;;;13.87;65.08;100557.81;6149167;23;46080;-70
2022/12/20 10:25:55;;;;;;;;;4.75;4.50;;;;;13.91;65.03;100556.56;6149572;23;45721;-70
2022/12/20 10:28:33;;;;;;;;;4.00;4.00;;;;;13.91;65.17;100545.22;6148989;23;45446;-70
2022/12/20 10:31:05;;;;;;;;;11.75;11.00;;;;;13.91;64.97;100548.69;6148384;23;47576;-72
2022/12/20 10:33:31;;;;;;;;;4.00;3.75;;;;;13.92;65.31;100549.50;6148341;23;47550;-70
2022/12/20 10:36:19;;;;;;;;;4.75;3.50;;;;;13.92;65.37;100534.56;6148671;23;45462;-72
2022/12/20 10:38:48;;;;;;;;;3.00;3.00;;;;;13.94;65.27;100531.75;6148616;23;45535;-70
2022/12/20 10:41:16;;;;;;;;;4.00;2.25;;;;;13.93;65.29;100525.66;6147433;23;45671;-70
2022/12/20 10:43:45;;;;;;;;;3.00;3.00;;;;;13.93;65.35;100528.28;6148341;23;46142;-70
2022/12/20 10:46:12;;;;;;;;;3.00;3.00;;;;;13.95;65.75;100536.06;6148733;23;45725;-70
2022/12/20 10:48:40;;;;;;;;;5.00;3.00;;;;;13.93;65.72;100530.13;6148759;23;45451;-70
2022/12/20 10:51:08;;;;;;;;;3.00;3.00;;;;;13.96;65.51;100540.38;6147878;23;46267;-70
2022/12/20 10:53:48;;;;;;;;;3.00;3.00;;;;;13.97;65.42;100542.03;6123451;23;46041;-72
2022/12/20 10:56:19;;;;;;;;;3.00;3.00;;;;;13.96;65.69;100537.75;6150880;23;45557;-71
2022/12/20 10:59:21;;;;;;;;;4.00;3.50;;;;;13.96;65.55;100528.03;6149412;23;45435;-71
2022/12/20 11:01:48;;;;;;;;;4.00;3.00;;;;;13.90;65.51;100525.09;6148222;23;46712;-72
2022/12/20 11:04:34;;;;;;;;;4.50;3.75;;;;;13.96;65.50;100532.47;6149308;23;46395;-70
2022/12/20 11:07:01;;;;;;;;;4.75;3.50;;;;;13.95;66.08;100526.38;6147892;23;45501;-72
2022/12/20 11:09:35;;;;;;;;;3.25;3.25;;;;;13.94;65.77;100519.44;6148403;23;45578;-71
2022/12/20 11:12:15;;;;;;;;;4.00;4.00;;;;;13.96;65.74;100532.47;6148755;23;45651;-72
2022/12/20 11:14:45;;;;;;;;;10.00;7.75;;;;;13.98;65.92;100522.66;6148080;23;46725;-71
2022/12/20 11:17:15;;;;;;;;;5.00;3.00;;;;;13.97;66.10;100524.44;6149136;23;45718;-70
2022/12/20 11:20:20;;;;;;;;;4.00;3.75;;;;;13.97;65.93;100519.19;6148296;23;45879;-71
2022/12/20 11:26:02;;;;;;;;;4.00;4.00;;;;;13.98;66.02;100514.75;6148472;23;45602;-69
2022/12/20 11:29:12;;;;;;;;;3.75;2.75;;;;;13.98;65.67;100518.19;6149054;23;45725;-70
2022/12/20 11:31:43;;;;;;;;;8.50;5.00;;;;;13.99;65.70;100519.03;6148386;23;45559;-71
2022/12/20 11:34:33;;;;;;;;;4.00;3.25;;;;;13.99;65.65;100519.03;6122016;23;47477;-72
2022/12/20 11:37:08;;;;;;;;;4.00;3.25;;;;;13.98;65.55;100520.00;6148349;23;46192;-72
2022/12/20 11:43:01;;;;;;;;;4.50;4.50;;;;;14.00;65.54;100505.72;6148377;23;45530;-70
2022/12/20 11:45:51;;;;;;;;;4.50;3.25;;;;;14.01;65.74;100488.97;6149199;23;45622;-72
2022/12/20 11:48:50;;;;;;;;;5.50;5.50;;;;;13.90;65.66;100472.44;6148516;23;46272;-72
2022/12/20 11:51:42;;;;;;;;;4.00;4.00;;;;;13.96;65.40;100475.38;6148194;23;45512;-71
2022/12/20 11:54:07;;;;;;;;;3.75;3.75;;;;;13.99;65.39;100468.97;6148866;23;45686;-71
2022/12/20 11:56:49;;;;;;;;;5.00;5.00;;;;;13.95;65.39;100455.25;6148044;23;47126;-69
2022/12/20 11:59:17;;;;;;;;;5.00;5.00;;;;;13.99;65.73;100468.97;6148518;23;46732;-70
2022/12/20 12:01:48;;;;;;;;;5.25;5.25;;;;;13.96;65.84;100462.19;6149064;23;45416;-71
2022/12/20 12:04:19;;;;;;;;;5.25;5.00;;;;;13.96;65.53;100464.81;6123958;23;45554;-72
2022/12/20 12:06:52;;;;;;;;;5.00;5.00;;;;;13.99;65.42;100461.06;6147021;23;46776;-73
2022/12/20 12:09:31;;;;;;;;;5.75;5.75;;;;;13.99;65.44;100461.06;6148780;23;45530;-70
2022/12/20 12:12:21;;;;;;;;;4.75;4.75;;;;;13.98;65.21;100446.25;6121608;23;45809;-71
2022/12/20 12:15:01;;;;;;;;;6.00;6.00;;;;;13.97;65.25;100445.44;6148333;23;45712;-71
2022/12/20 12:17:37;;;;;;;;;6.00;5.00;;;;;13.95;65.40;100431.53;6147248;23;45935;-71
2022/12/20 12:20:20;;;;;;;;;3.75;3.00;;;;;14.03;65.61;100439.63;6146621;23;45994;-71
2022/12/20 12:22:48;;;;;;;;;10.00;8.00;;;;;14.02;65.42;100434.47;6147254;23;45623;-71
2022/12/20 12:25:17;;;;;;;;;8.00;5.00;;;;;14.04;65.38;100438.63;6147789;23;45763;-72
2022/12/20 12:27:43;;;;;;;;;6.75;6.00;;;;;14.05;65.11;100435.03;6147937;23;47233;-72
2022/12/20 12:30:14;;;;;;;;;7.00;6.00;;;;;14.05;65.38;100429.75;6146992;23;46097;-71
2022/12/20 12:32:54;;;;;;;;;7.25;5.75;;;;;14.05;65.30;100421.03;6146811;23;45368;-72
2022/12/20 12:35:37;;;;;;;;;6.25;5.75;;;;;14.05;65.49;100415.75;6147165;23;45915;-72
2022/12/20 12:38:21;;;;;;;;;6.00;5.75;;;;;14.05;65.66;100408.69;6147295;23;47285;-73
2022/12/20 12:41:23;;;;;;;;;6.00;5.00;;;;;14.05;65.38;100397.31;6147266;23;46178;-68
2022/12/20 12:43:52;;;;;;;;;4.00;3.00;;;;;14.00;65.48;100386.34;6147551;23;45669;-71
2022/12/20 12:46:27;;;;;;;;;6.00;5.00;;;;;13.99;65.31;100397.84;6146407;23;45467;-71
2022/12/20 12:49:05;;;;;;;;;6.00;5.00;;;;;14.02;65.80;100405.50;6145956;23;45872;-69
2022/12/20 12:51:35;;;;;;;;;5.75;4.00;;;;;14.03;65.69;100417.72;6147357;23;46330;-70
2022/12/20 12:57:22;;;;;;;;;4.50;3.00;;;;;13.99;65.98;100401.31;6146891;23;45813;-70
2022/12/20 12:59:50;;;;;;;;;4.00;4.00;;;;;14.03;66.32;100412.44;6148169;23;46310;-70
2022/12/20 13:02:16;;;;;;;;;4.25;3.25;;;;;13.94;66.10;100382.47;6147585;23;46148;-71
2022/12/20 13:04:53;;;;;;;;;4.50;3.75;;;;;14.05;66.23;100403.41;6148898;23;45758;-70
2022/12/20 13:07:31;;;;;;;;;5.00;5.00;;;;;14.07;66.13;100403.28;6150624;23;45536;-72
2022/12/20 13:13:47;;;;;;;;;3.75;3.75;;;;;14.06;66.26;100401.63;6149241;23;45736;-68
2022/12/20 13:16:26;;;;;;;;;3.75;3.75;;;;;14.05;66.78;100403.41;6148871;23;45521;-70
2022/12/20 13:19:01;;;;;;;;;5.25;4.00;;;;;14.05;66.91;100397.31;6148864;23;45732;-71
2022/12/20 13:21:34;;;;;;;;;8.00;5.00;;;;;14.04;66.80;100390.38;6148898;23;46676;-71
2022/12/20 13:28:30;;;;;;;;;4.25;3.50;;;;;14.04;66.99;100385.94;6058450;23;45779;-70
2022/12/20 13:31:03;;;;;;;;;4.75;3.75;;;;;14.04;67.01;100372.78;6057732;23;45731;-70
2022/12/20 13:33:53;;;;;;;;;4.00;3.00;;;;;14.05;67.08;100374.44;6057960;23;46539;-68
2022/12/20 13:36:36;;;;;;;;;4.75;3.75;;;;;14.06;67.11;100380.56;6057769;23;46378;-71